Time;durP1;ratioP1;P1;durP2;ratioP2;P2;SDS_P1;SDS_P2;PMS_P1;PMS_P2;Temp;Humidity;BMP_temperature;BMP_pressure;BME280_temperature;BME280_humidity;BME280_pressure;Samples;Min_cycle;Max_cycle;Signal;HPM_P1;HPM_P2
2022/07/01 00:01:56;;;;;;;15.20;9.40;;;;;;;24.62;51.99;99816.41;106013;1281;138225;-76
2022/07/01 00:04:29;;;;;;;13.00;9.00;;;;;;;24.58;52.18;99812.98;105766;1281;112572;-77
2022/07/01 00:07:22;;;;;;;15.30;9.20;;;;;;;24.56;52.75;99817.70;106895;1281;138093;-75
2022/07/01 00:09:54;;;;;;;12.40;9.10;;;;;;;24.53;53.06;99814.97;107010;1281;108769;-75
2022/07/01 00:12:26;;;;;;;13.30;9.30;;;;;;;24.51;52.98;99814.48;106191;1281;97956;-76
2022/07/01 00:14:59;;;;;;;14.20;9.30;;;;;;;24.49;53.32;99812.16;105825;1281;137930;-76
2022/07/01 00:17:32;;;;;;;14.70;9.60;;;;;;;24.47;53.21;99818.89;105684;1281;112718;-75
2022/07/01 00:20:07;;;;;;;21.30;9.90;;;;;;;24.45;53.47;99817.19;106359;1281;137941;-75
2022/07/01 00:22:41;;;;;;;15.20;9.70;;;;;;;24.42;53.63;99817.08;106959;1281;108865;-76
2022/07/01 00:25:13;;;;;;;14.60;10.00;;;;;;;24.39;53.76;99818.45;106885;1281;138471;-75
2022/07/01 00:27:45;;;;;;;13.90;9.50;;;;;;;24.38;53.86;99821.05;106934;1280;96052;-75
2022/07/01 00:30:18;;;;;;;12.50;10.10;;;;;;;24.36;54.22;99820.73;107010;1280;111851;-75
2022/07/01 00:32:52;;;;;;;18.20;10.10;;;;;;;24.34;54.31;99824.44;106924;1280;139063;-74
2022/07/01 00:35:25;;;;;;;13.60;10.10;;;;;;;24.32;54.65;99827.11;107002;1281;108852;-75
2022/07/01 00:37:58;;;;;;;16.70;10.70;;;;;;;24.31;54.63;99823.33;105823;1281;138236;-75
2022/07/01 00:40:31;;;;;;;14.50;10.30;;;;;;;24.29;54.98;99828.67;105625;1282;97847;-74
2022/07/01 00:43:04;;;;;;;12.90;10.20;;;;;;;24.27;55.14;99826.39;105688;1281;138796;-77
2022/07/01 00:45:37;;;;;;;15.20;9.90;;;;;;;24.24;55.14;99819.91;105763;1281;108976;-77
2022/07/01 00:48:10;;;;;;;17.50;10.80;;;;;;;24.21;55.49;99828.55;105755;1281;109098;-75
2022/07/01 00:50:43;;;;;;;17.00;11.20;;;;;;;24.18;55.32;99826.83;105858;1281;138115;-75
2022/07/01 00:53:17;;;;;;;15.80;10.30;;;;;;;24.15;55.62;99829.79;105638;1281;97875;-74
2022/07/01 00:55:49;;;;;;;14.30;9.90;;;;;;;24.13;55.64;99828.06;105999;1281;138686;-75
2022/07/01 00:58:22;;;;;;;17.30;10.60;;;;;;;24.11;55.67;99837.96;105719;1281;108887;-76
2022/07/01 01:00:55;;;;;;;18.70;11.40;;;;;;;24.08;55.88;99838.41;106900;1281;139868;-76
2022/07/01 01:03:27;;;;;;;13.10;9.90;;;;;;;24.07;56.01;99837.96;106994;1281;96405;-76
2022/07/01 01:06:00;;;;;;;16.40;10.70;;;;;;;24.06;56.13;99843.40;105918;1281;97893;-76
2022/07/01 01:08:33;;;;;;;12.00;10.20;;;;;;;24.05;56.30;99846.14;105677;1281;138743;-75
2022/07/01 01:11:06;;;;;;;16.80;11.60;;;;;;;24.04;56.15;99851.02;105802;1281;109009;-76
2022/07/01 01:13:39;;;;;;;15.10;10.40;;;;;;;24.03;55.93;99864.98;105669;1281;138946;-76
2022/07/01 01:16:18;;;;;;;18.50;10.40;;;;;;;24.02;55.99;99874.89;105773;1281;97960;-75
2022/07/01 01:18:51;;;;;;;14.00;9.50;;;;;;;24.00;55.92;99882.30;106904;1281;138742;-75
2022/07/01 01:21:24;;;;;;;15.20;9.60;;;;;;;23.97;55.54;99890.61;106987;1281;112293;-76
2022/07/01 01:23:57;;;;;;;14.60;9.50;;;;;;;23.94;55.61;99889.88;106971;1281;109591;-76
2022/07/01 01:26:30;;;;;;;14.00;10.00;;;;;;;23.91;55.94;99896.02;105638;1283;138660;-76
2022/07/01 01:29:03;;;;;;;16.30;9.60;;;;;;;23.87;55.78;99905.27;106996;1281;96261;-75
2022/07/01 01:31:35;;;;;;;13.00;9.70;;;;;;;23.81;55.48;99912.02;106915;1281;138919;-74
2022/07/01 01:34:08;;;;;;;10.50;9.10;;;;;;;23.76;55.51;99918.73;107045;1280;112450;-76
2022/07/01 01:36:41;;;;;;;11.90;9.20;;;;;;;23.69;55.60;99913.70;106611;1281;108883;-76
2022/07/01 01:39:13;;;;;;;15.20;9.30;;;;;;;23.63;55.94;99925.41;105724;1281;108138;-76
2022/07/01 01:41:46;;;;;;;14.00;9.20;;;;;;;23.58;55.95;99935.84;105746;1281;98108;-75
2022/07/01 01:44:19;;;;;;;15.90;9.50;;;;;;;23.53;55.89;99919.92;105679;1281;139429;-76
2022/07/01 01:46:52;;;;;;;13.90;10.10;;;;;;;23.48;55.97;99920.02;107014;1281;111590;-75
2022/07/01 01:49:24;;;;;;;16.70;9.60;;;;;;;23.40;56.15;99913.81;106481;1281;138331;-75
2022/07/01 01:52:00;;;;;;;15.00;10.40;;;;;;;23.36;56.32;99923.09;106337;1281;108951;-75
2022/07/01 01:54:32;;;;;;;12.50;9.10;;;;;;;23.34;56.36;99925.39;107009;1280;95918;-76
2022/07/01 01:57:04;;;;;;;13.70;10.00;;;;;;;23.33;56.48;99932.67;106940;1281;138439;-76
2022/07/01 01:59:37;;;;;;;14.60;9.70;;;;;;;23.33;56.57;99942.48;107007;1279;112410;-76
2022/07/01 02:02:09;;;;;;;13.10;9.30;;;;;;;23.34;56.51;99941.89;106149;1281;138834;-75
2022/07/01 02:04:42;;;;;;;14.70;9.20;;;;;;;23.34;56.73;99938.13;106229;1281;108276;-74
2022/07/01 02:07:14;;;;;;;10.70;9.10;;;;;;;23.34;56.74;99937.95;106911;1281;138686;-75
2022/07/01 02:09:47;;;;;;;15.90;9.40;;;;;;;23.33;56.82;99933.61;107007;1280;95741;-77
2022/07/01 02:12:19;;;;;;;15.30;8.80;;;;;;;23.32;56.81;99938.29;107000;1280;112751;-74
2022/07/01 02:14:51;;;;;;;13.60;9.30;;;;;;;23.32;56.92;99939.36;106911;1280;140068;-75
2022/07/01 02:17:25;;;;;;;15.50;9.50;;;;;;;23.32;56.98;99948.23;106778;1279;108930;-75
2022/07/01 02:19:57;;;;;;;14.00;9.00;;;;;;;23.31;56.93;99941.74;105809;1281;138699;-76
2022/07/01 02:22:30;;;;;;;13.90;9.60;;;;;;;23.31;56.82;99932.58;105746;1281;97760;-76
2022/07/01 02:25:03;;;;;;;15.70;10.10;;;;;;;23.30;57.02;99926.59;106934;1280;138467;-75
2022/07/01 02:27:36;;;;;;;16.20;10.00;;;;;;;23.29;56.95;99923.67;107022;1279;108880;-76
2022/07/01 02:30:10;;;;;;;19.00;10.00;;;;;;;23.28;56.88;99928.58;106407;1281;106487;-75
2022/07/01 02:32:42;;;;;;;12.30;9.10;;;;;;;23.27;57.04;99936.34;106104;1281;140566;-75
2022/07/01 02:35:15;;;;;;;12.00;8.80;;;;;;;23.24;57.04;99946.48;105732;1281;97837;-75
2022/07/01 02:37:47;;;;;;;13.80;9.70;;;;;;;23.22;57.09;99945.08;105534;1281;138467;-75
2022/07/01 02:40:20;;;;;;;16.70;9.80;;;;;;;23.19;57.18;99941.77;105767;1281;107829;-75
2022/07/01 02:42:52;;;;;;;14.10;10.60;;;;;;;23.18;57.23;99933.57;106759;1280;138852;-74
2022/07/01 02:45:25;;;;;;;18.20;9.50;;;;;;;23.15;57.17;99920.70;105801;1281;97829;-76
2022/07/01 02:47:58;;;;;;;13.40;9.40;;;;;;;23.12;56.89;99925.05;107022;1281;96174;-76
2022/07/01 02:50:31;;;;;;;14.40;9.30;;;;;;;23.10;57.02;99935.15;105818;1281;138557;-76
2022/07/01 02:53:03;;;;;;;17.10;9.20;;;;;;;23.06;57.12;99936.92;106996;1280;107665;-76
2022/07/01 02:55:36;;;;;;;11.90;9.40;;;;;;;23.05;57.26;99946.58;106892;1280;140667;-75
2022/07/01 02:58:10;;;;;;;16.10;9.60;;;;;;;23.06;57.32;99939.77;107029;1280;96453;-76
2022/07/01 03:00:43;;;;;;;17.10;10.00;;;;;;;23.08;57.27;99935.02;105809;1281;138808;-74
2022/07/01 03:03:16;;;;;;;17.30;9.30;;;;;;;23.08;57.41;99931.94;107022;1280;111953;-76
2022/07/01 03:05:49;;;;;;;15.00;9.70;;;;;;;23.09;57.13;99942.55;107000;1280;108056;-76
2022/07/01 03:08:21;;;;;;;12.70;8.50;;;;;;;23.11;57.37;99954.05;105797;1281;138986;-76
2022/07/01 03:10:54;;;;;;;14.20;9.40;;;;;;;23.12;57.42;99964.09;105761;1281;98634;-76
2022/07/01 03:13:27;;;;;;;13.40;8.90;;;;;;;23.15;57.38;99964.85;105655;1281;138704;-77
2022/07/01 03:15:59;;;;;;;13.40;8.90;;;;;;;23.18;57.44;99955.00;106843;1281;111512;-75
2022/07/01 03:18:31;;;;;;;13.80;9.30;;;;;;;23.21;57.46;99949.44;107038;1280;107877;-76
2022/07/01 03:21:04;;;;;;;17.00;10.20;;;;;;;23.21;57.32;99939.89;106927;1280;139080;-76
2022/07/01 03:23:36;;;;;;;14.40;9.60;;;;;;;23.21;57.49;99940.54;107069;1280;96016;-76
2022/07/01 03:26:08;;;;;;;17.30;9.50;;;;;;;23.21;57.45;99944.43;106967;1281;139003;-76
2022/07/01 03:28:41;;;;;;;13.80;9.40;;;;;;;23.24;57.48;99945.27;107061;1280;111394;-76
2022/07/01 03:31:13;;;;;;;14.80;8.90;;;;;;;23.30;57.48;99947.93;106945;1280;138711;-77
2022/07/01 03:33:45;;;;;;;11.50;8.70;;;;;;;23.36;57.46;99948.43;107057;1281;109226;-76
2022/07/01 03:36:18;;;;;;;14.70;8.90;;;;;;;23.44;57.40;99949.16;107048;1281;96208;-76
2022/07/01 03:38:50;;;;;;;17.50;9.70;;;;;;;23.52;57.39;99945.58;106817;1281;138368;-75
2022/07/01 03:41:23;;;;;;;17.50;10.10;;;;;;;23.59;57.43;99941.75;106595;1280;112523;-75
2022/07/01 03:43:55;;;;;;;15.00;10.00;;;;;;;23.65;57.33;99933.89;105688;1280;139130;-76
2022/07/01 03:46:31;;;;;;;17.10;9.80;;;;;;;23.67;57.30;99926.94;105760;1281;108987;-74
2022/07/01 03:49:03;;;;;;;20.00;9.90;;;;;;;23.68;57.35;99923.86;105553;1281;140255;-75
2022/07/01 03:51:36;;;;;;;16.30;10.80;;;;;;;23.68;57.28;99922.85;107087;1281;95866;-76
2022/07/01 03:56:59;;;;;;;15.90;9.90;;;;;;;23.76;57.45;99929.23;106933;1281;138479;-76
2022/07/01 03:59:33;;;;;;;13.80;10.30;;;;;;;23.82;57.43;99928.84;107043;1281;107508;-76
2022/07/01 04:02:07;;;;;;;14.30;10.10;;;;;;;23.90;57.52;99925.90;106927;1281;139262;-75
2022/07/01 04:04:39;;;;;;;16.30;10.10;;;;;;;24.01;57.43;99926.66;107059;1280;95991;-76
2022/07/01 04:07:12;;;;;;;17.60;10.00;;;;;;;24.15;57.31;99925.94;106759;1281;139504;-76
2022/07/01 04:09:45;;;;;;;18.90;10.00;;;;;;;24.27;57.25;99930.49;106758;1280;108927;-75
2022/07/01 04:12:18;;;;;;;19.70;10.20;;;;;;;24.39;57.17;99918.55;105495;1281;108409;-76
2022/07/01 04:14:51;;;;;;;17.10;10.20;;;;;;;24.50;57.08;99917.84;105686;1281;138868;-76
2022/07/01 04:17:23;;;;;;;16.80;10.70;;;;;;;24.60;56.97;99921.41;106206;1281;97828;-76
2022/07/01 04:19:56;;;;;;;20.70;11.50;;;;;;;24.70;56.82;99916.06;106672;1281;138484;-76
2022/07/01 04:22:35;;;;;;;21.30;11.20;;;;;;;24.80;56.63;99915.10;107061;1281;109041;-76
2022/07/01 04:25:09;;;;;;;18.70;11.40;;;;;;;24.89;56.63;99913.13;106897;1281;138878;-77
2022/07/01 04:27:41;;;;;;;20.50;12.30;;;;;;;24.97;56.55;99912.64;107064;1281;96389;-77
2022/07/01 04:30:14;;;;;;;15.30;11.60;;;;;;;25.08;56.46;99911.14;105885;1281;98477;-74
2022/07/01 04:32:47;;;;;;;18.30;12.30;;;;;;;25.16;56.40;99909.40;106724;1281;137794;-77
2022/07/01 04:35:20;;;;;;;17.90;12.20;;;;;;;25.24;56.20;99906.48;107058;1279;108855;-77
2022/07/01 04:37:54;;;;;;;16.40;12.60;;;;;;;25.29;56.19;99897.66;105937;1281;138081;-76
2022/07/01 04:40:26;;;;;;;16.30;12.30;;;;;;;25.34;55.99;99898.44;107086;1280;96039;-77
2022/07/01 04:42:59;;;;;;;20.70;13.30;;;;;;;25.36;55.82;99901.77;106978;1280;138542;-76
2022/07/01 04:45:31;;;;;;;17.50;14.70;;;;;;;25.39;55.87;99902.21;107089;1280;112608;-76
2022/07/01 04:48:04;;;;;;;19.70;14.40;;;;;;;25.39;55.99;99902.58;107117;1280;109349;-75
2022/07/01 04:50:36;;;;;;;23.50;14.10;;;;;;;25.41;56.08;99900.06;106915;1281;138634;-76
2022/07/01 04:53:09;;;;;;;18.00;13.90;;;;;;;25.46;55.83;99897.56;106677;1281;97863;-77
2022/07/01 04:55:41;;;;;;;18.50;13.80;;;;;;;25.53;55.90;99897.23;106763;1279;138505;-77
2022/07/01 04:58:15;;;;;;;15.70;14.00;;;;;;;25.59;55.74;99894.78;106742;1281;112717;-76
2022/07/01 05:00:48;;;;;;;18.90;14.70;;;;;;;25.69;55.65;99890.51;106451;1280;138198;-76
2022/07/01 05:03:21;;;;;;;17.70;14.30;;;;;;;25.78;55.46;99893.10;105799;1281;108871;-76
2022/07/01 05:05:54;;;;;;;19.90;14.50;;;;;;;25.89;55.26;99890.71;106270;1281;97883;-76
2022/07/01 05:08:26;;;;;;;21.50;14.10;;;;;;;26.02;55.24;99888.59;106980;1280;137799;-77
2022/07/01 05:10:58;;;;;;;17.30;14.60;;;;;;;26.14;55.18;99891.34;107109;1281;111839;-77
2022/07/01 05:13:31;;;;;;;18.50;14.30;;;;;;;26.29;54.80;99885.41;107007;1281;139182;-77
2022/07/01 05:16:04;;;;;;;19.30;13.90;;;;;;;26.47;54.82;99886.35;107090;1280;108921;-76
2022/07/01 05:24:17;;;;;;;20.10;14.90;;;;;;;26.95;53.31;99883.77;107105;1280;112594;-76
2022/07/01 05:26:49;;;;;;;18.80;14.10;;;;;;;27.11;52.80;99887.50;106992;1280;138619;-76
2022/07/01 05:29:22;;;;;;;18.40;14.30;;;;;;;27.32;52.47;99886.86;107075;1280;107635;-76
2022/07/01 05:31:54;;;;;;;18.70;13.90;;;;;;;27.55;52.33;99887.52;106931;1280;138555;-76
2022/07/01 05:34:26;;;;;;;15.40;13.80;;;;;;;27.72;51.65;99890.86;107074;1280;96220;-77
2022/07/01 05:36:59;;;;;;;16.80;14.50;;;;;;;27.81;51.32;99884.12;106958;1281;138919;-76
2022/07/01 05:39:32;;;;;;;17.80;13.90;;;;;;;27.93;50.69;99882.80;106885;1280;109046;-76
2022/07/01 05:42:04;;;;;;;18.80;13.70;;;;;;;28.00;50.53;99883.47;105923;1281;108790;-76
2022/07/01 05:44:37;;;;;;;18.40;14.10;;;;;;;28.07;50.38;99883.59;106977;1280;138965;-77
2022/07/01 05:47:10;;;;;;;17.10;14.70;;;;;;;28.19;50.07;99875.91;107072;1281;96104;-75
2022/07/01 05:49:42;;;;;;;17.90;14.10;;;;;;;28.27;50.10;99872.40;106993;1280;137894;-76
2022/07/01 05:52:14;;;;;;;21.80;14.60;;;;;;;28.42;49.87;99875.74;107074;1280;109126;-76
2022/07/01 05:54:47;;;;;;;16.50;14.10;;;;;;;28.52;49.23;99878.19;106936;1280;138203;-76
2022/07/01 05:57:19;;;;;;;16.40;13.20;;;;;;;28.68;49.39;99877.21;107059;1280;96196;-76
2022/07/01 05:59:52;;;;;;;19.90;13.60;;;;;;;29.00;48.84;99879.12;107099;1281;96081;-77
2022/07/01 06:02:24;;;;;;;22.40;13.10;;;;;;;29.53;48.70;99876.84;106206;1280;139618;-75
2022/07/01 06:04:59;;;;;;;23.50;13.60;;;;;;;30.68;47.19;99871.85;106088;1281;109090;-76
2022/07/01 06:07:31;;;;;;;21.20;12.90;;;;;;;31.89;45.15;99870.34;106972;1280;138171;-76
2022/07/01 06:10:04;;;;;;;17.70;12.20;;;;;;;33.05;43.20;99865.82;106433;1280;97882;-75
2022/07/01 06:12:36;;;;;;;18.60;12.80;;;;;;;34.22;42.17;99864.20;107067;1281;95895;-77
2022/07/01 06:15:13;;;;;;;17.70;12.40;;;;;;;35.26;39.79;99857.60;106680;1282;111272;-76
2022/07/01 06:17:46;;;;;;;15.50;12.70;;;;;;;36.12;38.11;99861.08;107079;1280;107781;-76
2022/07/01 06:20:18;;;;;;;16.00;11.60;;;;;;;36.84;36.31;99857.73;106889;1280;138933;-76
2022/07/01 06:22:51;;;;;;;14.20;11.80;;;;;;;37.42;35.38;99855.98;107069;1279;96208;-76
2022/07/01 06:25:24;;;;;;;17.50;12.30;;;;;;;37.93;33.88;99855.50;106973;1280;138966;-74
2022/07/01 06:27:56;;;;;;;12.90;11.20;;;;;;;38.35;33.11;99855.63;107093;1280;112442;-78
2022/07/01 06:30:28;;;;;;;14.80;10.60;;;;;;;38.77;32.91;99855.66;107066;1281;108877;-76
2022/07/01 06:33:00;;;;;;;11.80;10.70;;;;;;;39.46;32.21;99856.55;106945;1280;138217;-76
2022/07/01 06:35:33;;;;;;;14.80;10.80;;;;;;;39.97;30.37;99861.95;107059;1281;96074;-76
2022/07/01 06:38:05;;;;;;;14.10;10.20;;;;;;;40.02;30.04;99859.30;106772;1281;138004;-76
2022/07/01 06:40:37;;;;;;;13.60;10.00;;;;;;;40.18;29.82;99860.08;107083;1280;111408;-76
2022/07/01 06:43:09;;;;;;;16.00;10.00;;;;;;;40.70;29.86;99862.57;106953;1280;138418;-75
2022/07/01 06:45:42;;;;;;;14.40;10.30;;;;;;;41.21;28.88;99861.36;106493;1283;108042;-74
2022/07/01 06:48:14;;;;;;;14.00;9.50;;;;;;;41.53;28.38;99856.85;106568;1281;96427;-75
2022/07/01 06:50:47;;;;;;;15.80;9.60;;;;;;;41.90;27.73;99857.02;106795;1280;138176;-75
2022/07/01 06:53:20;;;;;;;16.60;9.50;;;;;;;41.93;26.67;99854.64;105835;1281;112488;-76
2022/07/01 06:55:52;;;;;;;10.90;9.70;;;;;;;41.79;26.28;99861.50;106964;1281;138227;-76
2022/07/01 06:58:25;;;;;;;10.30;9.10;;;;;;;41.73;27.09;99855.00;107015;1281;109143;-77
2022/07/01 07:00:57;;;;;;;16.70;9.60;;;;;;;42.00;26.73;99858.96;106932;1280;139391;-77
2022/07/01 07:03:31;;;;;;;14.90;9.70;;;;;;;41.91;25.73;99857.41;107078;1280;96364;-77
2022/07/01 07:06:05;;;;;;;14.00;9.80;;;;;;;41.94;26.47;99856.07;107075;1280;112509;-77
2022/07/01 07:08:38;;;;;;;12.90;8.80;;;;;;;42.18;25.90;99858.33;106194;1281;138922;-77
2022/07/01 07:11:10;;;;;;;14.20;9.50;;;;;;;42.08;25.48;99853.42;107069;1280;108989;-76
2022/07/01 07:13:43;;;;;;;14.20;9.40;;;;;;;42.09;25.56;99860.02;106931;1281;138491;-76
2022/07/01 07:16:20;;;;;;;15.70;9.80;;;;;;;41.94;25.24;99858.97;107052;1280;95802;-76
2022/07/01 07:18:53;;;;;;;17.40;9.20;;;;;;;41.74;25.16;99858.90;106978;1280;137880;-76
2022/07/01 07:21:25;;;;;;;16.70;10.00;;;;;;;41.78;25.68;99855.75;107064;1281;109943;-76
2022/07/01 07:23:58;;;;;;;19.90;9.40;;;;;;;41.86;25.63;99861.79;107041;1280;108950;-77
2022/07/01 07:26:30;;;;;;;14.50;9.20;;;;;;;41.95;25.50;99858.10;105747;1280;137924;-76
2022/07/01 07:29:03;;;;;;;14.50;9.80;;;;;;;42.14;25.77;99859.93;106771;1280;96213;-76
2022/07/01 07:31:36;;;;;;;20.40;9.40;;;;;;;42.28;25.38;99858.09;106968;1280;137664;-77
2022/07/01 07:34:08;;;;;;;18.50;10.10;;;;;;;42.19;24.50;99855.25;107057;1281;108873;-76
2022/07/01 07:36:40;;;;;;;17.00;9.40;;;;;;;41.78;24.97;99850.32;107058;1280;107220;-77
2022/07/01 07:39:13;;;;;;;13.90;9.20;;;;;;;41.84;25.81;99849.31;106773;1280;96313;-77
2022/07/01 07:41:46;;;;;;;17.50;9.20;;;;;;;42.23;25.69;99850.66;106765;1280;96202;-76
2022/07/01 07:44:18;;;;;;;16.30;10.00;;;;;;;42.65;25.45;99853.48;106954;1280;137815;-77
2022/07/01 07:46:51;;;;;;;16.40;9.50;;;;;;;42.96;24.83;99848.27;105949;1281;109198;-76
2022/07/01 07:49:23;;;;;;;24.00;10.40;;;;;;;42.94;24.10;99848.86;106422;1281;138330;-77
2022/07/01 07:51:57;;;;;;;18.00;9.50;;;;;;;42.80;24.69;99848.10;105778;1281;97890;-76
2022/07/01 07:54:29;;;;;;;13.40;8.70;;;;;;;42.87;23.60;99852.41;106994;1280;95860;-76
2022/07/01 07:57:02;;;;;;;17.60;9.20;;;;;;;42.36;23.73;99850.66;106523;1281;138554;-75
2022/07/01 07:59:34;;;;;;;17.90;9.30;;;;;;;42.01;24.23;99851.45;106062;1281;107216;-75
2022/07/01 08:02:07;;;;;;;19.70;9.90;;;;;;;42.06;24.46;99846.99;105982;1280;137795;-76
2022/07/01 08:04:40;;;;;;;17.20;8.90;;;;;;;41.88;24.19;99850.88;107058;1280;96051;-77
2022/07/01 08:07:13;;;;;;;14.80;9.20;;;;;;;41.53;24.53;99845.08;106165;1281;137853;-77
2022/07/01 08:09:48;;;;;;;17.30;8.60;;;;;;;41.36;24.78;99856.77;106810;1280;113492;-76
2022/07/01 08:12:21;;;;;;;15.70;8.90;;;;;;;41.23;24.77;99845.41;105849;1281;107949;-76
2022/07/01 08:14:54;;;;;;;15.80;9.00;;;;;;;41.15;25.15;99845.01;105934;1280;139686;-76
2022/07/01 08:17:26;;;;;;;17.10;8.80;;;;;;;41.15;25.39;99851.08;105826;1280;97847;-76
2022/07/01 08:19:59;;;;;;;16.40;9.10;;;;;;;41.34;25.38;99850.89;106768;1281;141833;-76
2022/07/01 08:22:33;;;;;;;11.70;8.10;;;;;;;41.41;24.72;99852.36;106712;1281;112425;-77
2022/07/01 08:25:06;;;;;;;18.90;8.80;;;;;;;41.22;24.90;99863.95;105755;1281;138244;-74
2022/07/01 08:27:41;;;;;;;13.50;8.30;;;;;;;41.07;25.27;99857.29;106253;1280;108894;-76
2022/07/01 08:30:14;;;;;;;13.90;8.30;;;;;;;41.13;25.47;99855.76;106800;1281;97631;-75
2022/07/01 08:32:46;;;;;;;13.40;8.70;;;;;;;41.04;25.28;99861.27;105936;1280;138653;-75
2022/07/01 08:35:19;;;;;;;12.90;8.50;;;;;;;40.96;25.59;99859.91;107059;1280;111742;-76
2022/07/01 08:37:51;;;;;;;11.70;7.50;;;;;;;41.07;25.33;99861.82;106955;1278;137905;-76
2022/07/01 08:40:27;;;;;;;14.60;7.60;;;;;;;40.87;24.77;99855.34;107029;1280;108672;-75
2022/07/01 08:43:01;;;;;;;20.20;7.80;;;;;;;40.57;25.24;99861.80;106641;1280;138625;-75
2022/07/01 08:45:35;;;;;;;12.10;7.80;;;;;;;40.59;25.47;99854.95;107059;1280;96084;-75
2022/07/01 08:48:08;;;;;;;13.00;7.50;;;;;;;40.69;25.77;99857.46;107053;1280;112578;-75
2022/07/01 08:50:42;;;;;;;9.40;7.10;;;;;;;40.56;24.88;99861.03;106934;1280;137932;-76
2022/07/01 08:53:16;;;;;;;17.40;7.20;;;;;;;40.36;24.88;99863.34;106599;1281;108915;-75
2022/07/01 08:58:38;;;;;;;8.70;7.50;;;;;;;39.90;25.26;99859.38;107062;1281;95878;-75
2022/07/01 09:01:20;;;;;;;10.50;7.10;;;;;;;39.77;25.78;99850.55;106342;1281;139695;-76
2022/07/01 09:03:57;;;;;;;9.00;6.80;;;;;;;39.75;25.59;99849.16;106481;1281;109029;-75
2022/07/01 09:06:30;;;;;;;14.00;7.10;;;;;;;39.88;25.82;99843.41;106027;1281;108319;-75
2022/07/01 09:09:14;;;;;;;12.50;7.40;;;;;;;39.99;25.59;99838.38;105722;1281;138771;-74
2022/07/01 09:11:54;;;;;;;11.60;6.70;;;;;;;40.01;25.65;99848.54;106173;1281;97843;-75
2022/07/01 09:14:29;;;;;;;11.50;6.30;;;;;;;39.81;25.17;99840.68;106364;1281;138563;-75
2022/07/01 09:17:04;;;;;;;14.50;6.90;;;;;;;39.83;24.62;99835.34;107024;1279;107820;-75
2022/07/01 09:19:37;;;;;;;10.30;6.00;;;;;;;39.62;23.99;99828.88;106927;1281;138626;-76
2022/07/01 09:22:17;;;;;;;9.80;6.30;;;;;;;39.34;23.80;99842.91;107022;1280;96125;-76
2022/07/01 09:24:52;;;;;;;12.60;6.90;;;;;;;38.85;24.55;99839.48;106585;1281;138245;-75
2022/07/01 09:27:28;;;;;;;13.10;6.80;;;;;;;38.55;25.61;99826.11;107056;1281;112531;-76
2022/07/01 09:30:01;;;;;;;8.70;6.20;;;;;;;38.67;25.43;99827.65;107089;1281;109068;-76
2022/07/01 09:32:33;;;;;;;9.80;6.60;;;;;;;38.76;24.83;99828.08;106929;1280;137660;-74
2022/07/01 09:35:07;;;;;;;8.80;6.70;;;;;;;38.58;24.85;99837.30;106984;1280;97920;-75
2022/07/01 09:37:39;;;;;;;13.00;6.50;;;;;;;38.36;25.32;99840.95;106331;1281;137639;-75
2022/07/01 09:40:13;;;;;;;12.80;6.80;;;;;;;38.35;25.68;99821.80;107045;1280;112707;-76
2022/07/01 09:42:48;;;;;;;15.30;7.00;;;;;;;38.61;25.97;99815.80;105910;1280;138244;-75
2022/07/01 09:45:21;;;;;;;16.20;7.00;;;;;;;38.88;25.11;99841.84;105807;1281;108884;-76
2022/07/01 09:47:54;;;;;;;10.70;6.80;;;;;;;38.67;24.84;99837.61;105541;1281;427896;-76
2022/07/01 09:50:27;;;;;;;8.50;6.50;;;;;;;38.31;24.64;99835.15;106947;1280;137356;-76
2022/07/01 09:52:59;;;;;;;8.80;6.70;;;;;;;37.99;25.21;99839.63;107046;1281;111849;-76
2022/07/01 09:55:32;;;;;;;10.30;6.50;;;;;;;37.79;25.76;99831.27;105886;1281;138507;-77
2022/07/01 09:58:04;;;;;;;13.60;7.20;;;;;;;37.72;25.93;99826.27;107014;1281;107896;-76
2022/07/01 10:00:39;;;;;;;9.20;7.00;;;;;;;37.73;26.16;99833.00;106097;1281;97931;-76
2022/07/01 10:03:12;;;;;;;11.70;6.60;;;;;;;37.70;26.10;99831.89;107028;1280;96014;-76
2022/07/01 10:05:51;;;;;;;11.30;6.40;;;;;;;37.70;26.10;99839.05;106126;1280;111448;-76
2022/07/01 10:08:42;;;;;;;11.40;6.10;;;;;;;37.66;25.92;99836.70;106203;1281;137924;-75
2022/07/01 10:11:40;;;;;;;9.20;6.70;;;;;;;37.56;25.97;99839.90;106390;1280;108851;-75
2022/07/01 10:14:15;;;;;;;11.60;6.90;;;;;;;37.33;26.45;99858.75;105709;1281;138214;-75
2022/07/01 10:16:49;;;;;;;12.30;7.20;;;;;;;37.08;26.82;99843.38;107059;1281;96119;-74
2022/07/01 10:19:30;;;;;;;11.20;7.50;;;;;;;36.93;27.08;99840.66;106851;1280;137816;-76
2022/07/01 10:22:27;;;;;;;8.30;7.50;;;;;;;36.81;27.44;99840.03;106985;1279;108494;-75
2022/07/01 10:25:32;;;;;;;11.10;7.90;;;;;;;36.87;28.12;99831.14;106400;1281;138169;-77
2022/07/01 10:28:26;;;;;;;12.20;8.20;;;;;;;37.08;27.76;99840.56;106462;1280;97805;-77
2022/07/01 10:31:04;;;;;;;10.10;7.30;;;;;;;36.99;27.78;99822.94;105928;1281;138667;-76
2022/07/01 10:33:44;;;;;;;9.80;7.60;;;;;;;36.78;27.59;99832.89;105827;1281;112162;-76
2022/07/01 10:36:26;;;;;;;13.00;7.70;;;;;;;36.45;27.83;99822.77;105809;1281;109169;-75
2022/07/01 10:39:27;;;;;;;9.40;8.10;;;;;;;36.32;28.17;99828.81;105671;1281;137806;-76
2022/07/01 10:42:08;;;;;;;16.80;8.20;;;;;;;36.22;28.57;99822.45;106036;1281;97842;-77
2022/07/01 10:45:10;;;;;;;13.20;7.70;;;;;;;36.22;28.65;99813.15;105982;1281;138668;-75
2022/07/01 10:47:43;;;;;;;15.60;7.00;;;;;;;36.22;28.61;99808.17;106166;1281;111338;-76
2022/07/01 10:50:17;;;;;;;11.30;8.10;;;;;;;36.16;28.68;99806.71;105782;1281;137882;-77
2022/07/01 10:53:05;;;;;;;10.30;7.00;;;;;;;36.19;28.54;99811.02;105845;1281;109330;-76
2022/07/01 10:55:46;;;;;;;10.20;7.10;;;;;;;36.10;28.41;99807.38;105702;1281;140072;-74
2022/07/01 10:58:20;;;;;;;9.60;7.20;;;;;;;36.07;28.63;99807.42;106107;1280;97826;-75
2022/07/01 11:00:55;;;;;;;11.50;6.70;;;;;;;36.10;28.67;99802.31;105690;1281;137779;-75
2022/07/01 11:03:28;;;;;;;9.40;7.80;;;;;;;36.16;28.67;99795.73;105806;1281;108964;-76
2022/07/01 11:06:00;;;;;;;10.00;7.20;;;;;;;36.15;28.22;99801.13;105831;1280;108926;-76
2022/07/01 11:08:33;;;;;;;11.50;7.60;;;;;;;36.03;28.26;99803.88;105787;1280;138251;-76
2022/07/01 11:11:06;;;;;;;13.80;7.80;;;;;;;36.03;28.67;99790.89;106887;1280;95740;-76
2022/07/01 11:13:39;;;;;;;13.60;7.70;;;;;;;36.10;28.44;99788.50;105777;1280;137789;-76
2022/07/01 11:16:11;;;;;;;10.20;7.20;;;;;;;36.11;28.50;99785.48;105767;1281;108893;-76
2022/07/01 11:18:45;;;;;;;11.30;6.50;;;;;;;36.13;27.71;99788.54;106353;1281;138256;-75
2022/07/01 11:21:17;;;;;;;11.10;6.10;;;;;;;36.04;27.21;99786.50;105880;1280;97855;-76
2022/07/01 11:23:56;;;;;;;10.60;7.30;;;;;;;35.99;27.64;99781.13;107059;1280;96017;-75
2022/07/01 11:26:29;;;;;;;12.80;7.10;;;;;;;35.92;28.05;99774.67;106194;1280;137666;-76
2022/07/01 11:29:01;;;;;;;8.70;7.10;;;;;;;35.92;27.73;99786.42;106055;1281;106822;-76
2022/07/01 11:31:36;;;;;;;9.60;7.70;;;;;;;35.82;27.49;99785.23;105671;1281;137746;-77
2022/07/01 11:34:08;;;;;;;9.40;6.60;;;;;;;35.68;27.33;99780.71;105828;1281;97930;-77
2022/07/01 11:40:03;;;;;;;12.10;7.40;;;;;;;35.52;28.02;99769.52;105131;1287;112152;-76
2022/07/01 11:42:35;;;;;;;11.60;7.80;;;;;;;35.52;28.34;99765.67;105036;1287;109271;-79
2022/07/01 11:45:22;;;;;;;10.60;7.60;;;;;;;35.53;28.52;99755.83;105106;1287;108913;-77
2022/07/01 11:47:56;;;;;;;9.50;7.30;;;;;;;35.64;28.46;99760.36;105341;1287;97812;-76
2022/07/01 11:50:29;;;;;;;14.50;7.00;;;;;;;35.56;28.00;99752.50;105229;1287;137573;-77
2022/07/01 11:53:02;;;;;;;14.00;7.30;;;;;;;35.40;27.71;99743.57;105123;1287;112446;-77
2022/07/01 11:55:34;;;;;;;12.10;7.20;;;;;;;35.39;27.93;99743.00;105689;1286;138053;-76